Time;durP1;ratioP1;P1;durP2;ratioP2;P2;SDS_P1;SDS_P2;PMS_P1;PMS_P2;Temp;Humidity;BMP_temperature;BMP_pressure;BME280_temperature;BME280_humidity;BME280_pressure;Samples;Min_cycle;Max_cycle;Signal;HPM_P1;HPM_P2
2021/09/04 00:02:19;;;;;;;23.10;20.70;;;;;;;;;;5055453;28;20304;-62
2021/09/04 00:04:44;;;;;;;20.30;18.30;;;;;;;;;;5055871;28;20544;-62
2021/09/04 00:07:10;;;;;;;22.90;19.83;;;;;;;;;;5055932;28;20580;-62
2021/09/04 00:09:35;;;;;;;20.50;18.33;;;;;;;;;;5055078;28;20628;-61
2021/09/04 00:12:03;;;;;;;21.13;18.93;;;;;;;;;;5054634;28;20213;-61
2021/09/04 00:14:28;;;;;;;20.97;18.80;;;;;;;;;;5055075;28;20467;-61
2021/09/04 00:16:53;;;;;;;20.37;18.23;;;;;;;;;;5055475;28;21077;-61
2021/09/04 00:19:18;;;;;;;23.40;18.77;;;;;;;;;;5054914;28;20628;-62
2021/09/04 00:21:44;;;;;;;21.07;18.87;;;;;;;;;;5055438;28;20213;-62
2021/09/04 00:24:09;;;;;;;21.87;19.13;;;;;;;;;;5055587;28;20261;-62
2021/09/04 00:26:37;;;;;;;21.23;19.03;;;;;;;;;;5054804;28;20240;-62
2021/09/04 00:29:02;;;;;;;20.80;17.80;;;;;;;;;;5055283;28;20216;-62
2021/09/04 00:31:28;;;;;;;23.07;20.67;;;;;;;;;;5054784;28;20945;-62
2021/09/04 00:33:53;;;;;;;22.23;18.77;;;;;;;;;;5055238;28;20360;-62
2021/09/04 00:36:18;;;;;;;22.43;19.13;;;;;;;;;;5054883;28;20217;-62
2021/09/04 00:38:43;;;;;;;23.17;18.80;;;;;;;;;;5055054;28;20232;-63
2021/09/04 00:41:09;;;;;;;25.87;20.50;;;;;;;;;;5054858;28;20230;-62
2021/09/04 00:43:34;;;;;;;20.63;17.67;;;;;;;;;;5054532;28;20621;-61
2021/09/04 00:46:10;;;;;;;21.50;19.13;;;;;;;;;;5055108;28;20217;-61
2021/09/04 00:48:35;;;;;;;21.17;18.97;;;;;;;;;;5054462;28;20228;-61
2021/09/04 00:51:01;;;;;;;21.90;18.63;;;;;;;;;;5054826;28;20468;-61
2021/09/04 00:53:26;;;;;;;22.20;18.40;;;;;;;;;;5054558;28;20687;-61
2021/09/04 00:55:52;;;;;;;23.43;21.00;;;;;;;;;;5054950;28;20532;-62
2021/09/04 00:58:18;;;;;;;25.93;19.63;;;;;;;;;;5054240;28;20334;-63
2021/09/04 01:00:49;;;;;;;21.97;18.73;;;;;;;;;;5037182;28;20220;-61
2021/09/04 01:03:14;;;;;;;20.30;18.40;;;;;;;;;;5054281;28;20470;-62
2021/09/04 01:05:40;;;;;;;24.60;19.57;;;;;;;;;;5054686;28;20463;-61
2021/09/04 01:08:05;;;;;;;21.37;19.07;;;;;;;;;;5054696;28;20221;-62
2021/09/04 01:10:31;;;;;;;21.70;19.40;;;;;;;;;;5054096;28;20244;-62
2021/09/04 01:12:56;;;;;;;21.93;19.60;;;;;;;;;;5037114;28;20221;-61
2021/09/04 01:15:21;;;;;;;21.40;19.23;;;;;;;;;;5036741;28;20225;-62
2021/09/04 01:17:47;;;;;;;20.50;18.30;;;;;;;;;;5054456;28;20319;-61
2021/09/04 01:20:12;;;;;;;21.13;19.13;;;;;;;;;;5036840;28;20571;-61
2021/09/04 01:22:37;;;;;;;22.23;20.00;;;;;;;;;;5036266;28;20221;-61
2021/09/04 01:25:06;;;;;;;21.37;18.97;;;;;;;;;;5054466;28;20224;-61
2021/09/04 01:27:32;;;;;;;20.27;18.27;;;;;;;;;;5053759;28;20675;-61
2021/09/04 01:29:58;;;;;;;22.93;20.00;;;;;;;;;;5054108;28;20466;-62
2021/09/04 01:32:23;;;;;;;21.27;19.07;;;;;;;;;;5053772;28;20805;-63
2021/09/04 01:34:48;;;;;;;21.57;18.03;;;;;;;;;;5054202;28;20228;-61
2021/09/04 01:37:14;;;;;;;19.80;17.73;;;;;;;;;;5054113;28;20367;-61
2021/09/04 01:39:39;;;;;;;20.10;18.00;;;;;;;;;;5053410;28;20225;-62
2021/09/04 01:42:04;;;;;;;20.40;18.20;;;;;;;;;;5036602;28;20225;-62
2021/09/04 01:44:29;;;;;;;22.83;17.83;;;;;;;;;;5053461;28;20282;-62
2021/09/04 01:46:55;;;;;;;20.30;18.20;;;;;;;;;;5036766;28;20233;-62
2021/09/04 01:49:20;;;;;;;19.47;17.40;;;;;;;;;;5053401;28;20312;-62
2021/09/04 01:51:46;;;;;;;21.10;18.83;;;;;;;;;;5036364;28;20224;-62
2021/09/04 01:54:11;;;;;;;19.43;17.40;;;;;;;;;;5036586;28;20213;-63
2021/09/04 01:56:36;;;;;;;21.33;19.03;;;;;;;;;;5053396;28;20221;-63
2021/09/04 01:59:02;;;;;;;20.37;18.10;;;;;;;;;;5053888;28;20624;-62
2021/09/04 02:01:27;;;;;;;21.00;17.70;;;;;;;;;;5053243;28;20225;-62
2021/09/04 02:03:52;;;;;;;21.83;18.83;;;;;;;;;;5053956;28;20531;-61
2021/09/04 02:06:17;;;;;;;18.87;16.93;;;;;;;;;;5053786;28;20308;-62
2021/09/04 02:08:43;;;;;;;20.00;17.90;;;;;;;;;;5053207;28;20225;-62
2021/09/04 02:11:10;;;;;;;21.27;18.00;;;;;;;;;;5053715;28;20251;-61
2021/09/04 02:13:38;;;;;;;19.07;17.17;;;;;;;;;;5053133;28;20243;-61
2021/09/04 02:16:03;;;;;;;19.53;17.53;;;;;;;;;;5053708;28;20487;-60
2021/09/04 02:18:29;;;;;;;19.83;17.73;;;;;;;;;;5053118;28;20494;-61
2021/09/04 02:20:54;;;;;;;21.17;17.67;;;;;;;;;;5053678;28;20300;-62
2021/09/04 02:23:19;;;;;;;20.70;17.37;;;;;;;;;;5053316;28;20282;-62
2021/09/04 02:25:45;;;;;;;20.63;18.60;;;;;;;;;;5053715;28;20304;-62
2021/09/04 02:28:14;;;;;;;24.67;18.63;;;;;;;;;;5053598;28;20591;-62
2021/09/04 02:30:39;;;;;;;23.13;19.50;;;;;;;;;;5052890;28;20652;-62
2021/09/04 02:33:04;;;;;;;19.97;17.87;;;;;;;;;;5053667;28;20464;-62
2021/09/04 02:35:30;;;;;;;24.13;19.00;;;;;;;;;;5056342;28;20565;-62
2021/09/04 02:37:55;;;;;;;19.50;17.47;;;;;;;;;;5057407;28;20232;-62
2021/09/04 02:40:20;;;;;;;20.87;18.83;;;;;;;;;;5056964;28;20628;-61
2021/09/04 02:42:45;;;;;;;20.03;17.50;;;;;;;;;;5056895;28;20232;-61
2021/09/04 02:45:11;;;;;;;20.43;18.23;;;;;;;;;;5057126;28;20217;-61
2021/09/04 02:47:38;;;;;;;21.83;19.50;;;;;;;;;;5056919;28;20232;-61
2021/09/04 02:50:04;;;;;;;18.00;16.30;;;;;;;;;;5057049;28;20561;-61
2021/09/04 02:52:29;;;;;;;19.47;17.37;;;;;;;;;;5056732;28;20509;-63
2021/09/04 02:54:54;;;;;;;20.57;18.43;;;;;;;;;;5057078;28;20213;-61
2021/09/04 02:57:20;;;;;;;19.90;17.90;;;;;;;;;;5057176;28;20228;-61
2021/09/04 02:59:46;;;;;;;20.40;18.20;;;;;;;;;;5056452;28;20217;-61
2021/09/04 03:02:11;;;;;;;21.27;19.00;;;;;;;;;;5057087;28;20550;-61
2021/09/04 03:04:36;;;;;;;22.20;18.70;;;;;;;;;;5056419;28;20675;-61
2021/09/04 03:07:02;;;;;;;22.57;20.17;;;;;;;;;;5056691;28;20236;-61
2021/09/04 03:09:27;;;;;;;19.93;17.83;;;;;;;;;;5056367;28;20228;-62
2021/09/04 03:11:52;;;;;;;20.50;18.33;;;;;;;;;;5056940;28;20354;-62
2021/09/04 03:14:17;;;;;;;19.93;17.53;;;;;;;;;;5056674;28;20209;-62
2021/09/04 03:16:43;;;;;;;21.20;19.03;;;;;;;;;;5056597;28;20300;-62
2021/09/04 03:19:10;;;;;;;22.53;18.77;;;;;;;;;;5056873;28;20557;-62
2021/09/04 03:21:35;;;;;;;20.87;18.57;;;;;;;;;;5055996;28;20221;-62
2021/09/04 03:24:00;;;;;;;20.63;18.50;;;;;;;;;;5056946;28;20581;-62
2021/09/04 03:26:26;;;;;;;20.20;18.17;;;;;;;;;;5056137;28;20220;-62
2021/09/04 03:28:51;;;;;;;25.90;18.00;;;;;;;;;;5056367;28;20233;-62
2021/09/04 03:31:16;;;;;;;20.50;18.30;;;;;;;;;;5056299;28;20290;-61
2021/09/04 03:33:42;;;;;;;20.93;18.47;;;;;;;;;;5056159;28;20220;-61
2021/09/04 03:36:07;;;;;;;21.40;18.27;;;;;;;;;;5055745;28;20237;-61
2021/09/04 03:38:32;;;;;;;20.10;17.90;;;;;;;;;;5038592;28;20266;-62
2021/09/04 03:41:00;;;;;;;20.20;18.10;;;;;;;;;;5056347;28;20240;-62
2021/09/04 03:43:26;;;;;;;20.30;18.20;;;;;;;;;;5055852;28;20775;-62
2021/09/04 03:45:51;;;;;;;25.40;20.13;;;;;;;;;;5055995;28;20463;-62
2021/09/04 03:48:16;;;;;;;23.03;19.10;;;;;;;;;;5056107;28;20278;-61
2021/09/04 03:50:41;;;;;;;24.77;18.63;;;;;;;;;;5055782;28;20605;-62
2021/09/04 03:53:07;;;;;;;21.40;17.73;;;;;;;;;;5056154;28;20217;-62
2021/09/04 03:55:32;;;;;;;21.63;19.33;;;;;;;;;;5055667;28;20209;-62
2021/09/04 03:57:57;;;;;;;20.70;17.97;;;;;;;;;;5055790;28;20292;-62
2021/09/04 04:00:23;;;;;;;24.40;18.40;;;;;;;;;;5055714;28;20327;-62
2021/09/04 04:02:48;;;;;;;24.57;19.97;;;;;;;;;;5055288;28;20217;-62
2021/09/04 04:05:14;;;;;;;23.77;17.20;;;;;;;;;;5055877;28;21006;-63
2021/09/04 04:07:39;;;;;;;22.47;20.10;;;;;;;;;;5055316;28;20209;-63
2021/09/04 04:10:05;;;;;;;21.90;19.00;;;;;;;;;;5038211;28;20582;-62
2021/09/04 04:12:30;;;;;;;19.60;17.50;;;;;;;;;;5052547;28;20245;-62
2021/09/04 04:14:56;;;;;;;22.27;19.13;;;;;;;;;;5055146;28;20452;-62
2021/09/04 04:17:21;;;;;;;21.27;19.03;;;;;;;;;;5064116;28;20591;-62
2021/09/04 04:19:46;;;;;;;18.43;16.50;;;;;;;;;;5063609;28;20359;-63
2021/09/04 04:22:12;;;;;;;24.67;19.60;;;;;;;;;;5068485;28;20217;-62
2021/09/04 04:24:37;;;;;;;23.43;20.53;;;;;;;;;;5066464;28;20311;-63
2021/09/04 04:27:03;;;;;;;25.33;20.70;;;;;;;;;;5061571;28;20229;-62
2021/09/04 04:29:31;;;;;;;28.20;21.17;;;;;;;;;;5071700;28;20564;-63
2021/09/04 04:31:57;;;;;;;23.07;19.20;;;;;;;;;;5061438;28;20463;-62
2021/09/04 04:34:22;;;;;;;23.27;18.97;;;;;;;;;;5063790;28;20521;-62
2021/09/04 04:36:47;;;;;;;22.80;18.87;;;;;;;;;;5068211;28;20240;-62
2021/09/04 04:39:13;;;;;;;25.53;21.53;;;;;;;;;;5065974;28;20299;-62
2021/09/04 04:41:39;;;;;;;27.33;21.70;;;;;;;;;;5060657;28;20239;-62
2021/09/04 04:44:04;;;;;;;25.70;21.40;;;;;;;;;;5062784;28;20220;-62
2021/09/04 04:46:29;;;;;;;27.63;21.37;;;;;;;;;;5068314;28;20228;-63
2021/09/04 04:48:55;;;;;;;26.83;22.13;;;;;;;;;;5063367;28;20228;-62
2021/09/04 04:51:20;;;;;;;24.43;20.03;;;;;;;;;;5067915;28;20558;-62
2021/09/04 04:53:45;;;;;;;28.50;21.57;;;;;;;;;;5065069;28;20259;-62
2021/09/04 04:56:10;;;;;;;25.23;21.00;;;;;;;;;;5043069;28;20232;-62
2021/09/04 04:58:36;;;;;;;25.17;20.33;;;;;;;;;;5063415;28;20296;-62
2021/09/04 05:01:01;;;;;;;24.23;20.90;;;;;;;;;;5057874;28;20570;-61
2021/09/04 05:03:26;;;;;;;25.50;21.40;;;;;;;;;;5065305;28;20245;-62
2021/09/04 05:05:52;;;;;;;24.70;20.90;;;;;;;;;;5067427;28;20281;-61
2021/09/04 05:08:17;;;;;;;21.40;18.03;;;;;;;;;;5045406;28;20216;-62
2021/09/04 05:10:43;;;;;;;24.00;18.57;;;;;;;;;;5060387;28;20232;-62
2021/09/04 05:13:08;;;;;;;23.23;19.43;;;;;;;;;;5057808;28;20249;-61
2021/09/04 05:15:33;;;;;;;25.07;20.60;;;;;;;;;;5061943;28;20273;-62
2021/09/04 05:17:59;;;;;;;21.10;18.27;;;;;;;;;;5062004;28;20220;-62
2021/09/04 05:20:24;;;;;;;21.27;18.93;;;;;;;;;;5060207;28;20684;-62
2021/09/04 05:22:50;;;;;;;20.70;18.30;;;;;;;;;;5066324;28;20300;-62
2021/09/04 05:25:16;;;;;;;25.03;18.50;;;;;;;;;;5067497;28;20729;-61
2021/09/04 05:27:41;;;;;;;24.10;18.90;;;;;;;;;;5043650;28;20221;-62
2021/09/04 05:30:08;;;;;;;26.03;20.13;;;;;;;;;;5060374;28;20471;-62
2021/09/04 05:32:33;;;;;;;26.23;19.20;;;;;;;;;;5066035;28;20550;-63
2021/09/04 05:35:01;;;;;;;22.73;16.87;;;;;;;;;;5049766;28;20571;-62
2021/09/04 05:37:27;;;;;;;21.00;17.73;;;;;;;;;;5061528;28;20232;-62
2021/09/04 05:39:53;;;;;;;24.23;18.40;;;;;;;;;;5059727;28;20753;-62
2021/09/04 05:42:21;;;;;;;22.13;16.50;;;;;;;;;;5066445;28;20361;-62
2021/09/04 05:44:47;;;;;;;21.07;16.73;;;;;;;;;;5066809;28;20474;-61
2021/09/04 05:47:12;;;;;;;28.23;17.50;;;;;;;;;;5061153;28;20485;-61
2021/09/04 05:49:37;;;;;;;19.80;16.33;;;;;;;;;;5059668;28;20220;-62
2021/09/04 05:52:03;;;;;;;18.93;16.90;;;;;;;;;;5066690;28;20231;-61
2021/09/04 05:54:29;;;;;;;21.07;18.83;;;;;;;;;;5067317;28;20216;-62
2021/09/04 05:56:54;;;;;;;18.73;16.70;;;;;;;;;;5060690;28;20462;-62
2021/09/04 05:59:20;;;;;;;22.03;17.27;;;;;;;;;;5060078;28;20726;-62
2021/09/04 06:01:45;;;;;;;17.23;15.17;;;;;;;;;;5048662;28;20220;-62
2021/09/04 06:04:10;;;;;;;20.77;16.87;;;;;;;;;;5066918;28;20310;-62
2021/09/04 06:06:36;;;;;;;22.33;17.20;;;;;;;;;;5060160;28;20239;-63
2021/09/04 06:09:02;;;;;;;20.00;16.23;;;;;;;;;;5061035;28;20240;-63
2021/09/04 06:11:29;;;;;;;22.00;17.33;;;;;;;;;;5070687;28;20229;-62
2021/09/04 06:13:54;;;;;;;20.00;16.27;;;;;;;;;;5063375;28;20950;-63
2021/09/04 06:16:19;;;;;;;17.80;15.10;;;;;;;;;;5071203;28;20465;-62
2021/09/04 06:18:44;;;;;;;19.17;15.93;;;;;;;;;;5066850;28;20690;-62
2021/09/04 06:21:10;;;;;;;19.00;17.00;;;;;;;;;;5063756;28;20299;-63
2021/09/04 06:23:35;;;;;;;30.17;16.70;;;;;;;;;;5068818;28;20233;-63
2021/09/04 06:26:00;;;;;;;19.27;16.17;;;;;;;;;;5069977;28;20277;-63
2021/09/04 06:28:25;;;;;;;21.30;15.87;;;;;;;;;;5066002;28;20230;-63
2021/09/04 06:30:51;;;;;;;18.70;15.40;;;;;;;;;;5063316;28;20312;-62
2021/09/04 06:33:16;;;;;;;18.70;16.37;;;;;;;;;;5068819;28;20220;-63
2021/09/04 06:35:41;;;;;;;21.07;15.73;;;;;;;;;;5070092;28;20605;-63
2021/09/04 06:38:06;;;;;;;17.30;14.70;;;;;;;;;;5047848;28;20273;-63
2021/09/04 06:40:32;;;;;;;18.30;15.20;;;;;;;;;;5063320;28;20220;-63
2021/09/04 06:42:57;;;;;;;20.83;16.80;;;;;;;;;;5069069;28;20598;-62
2021/09/04 06:45:22;;;;;;;24.23;16.60;;;;;;;;;;5070406;28;20220;-63
2021/09/04 06:47:48;;;;;;;19.30;14.60;;;;;;;;;;5064467;28;20632;-63
2021/09/04 06:50:13;;;;;;;20.20;16.67;;;;;;;;;;5063557;28;20298;-62
2021/09/04 06:52:38;;;;;;;16.70;15.10;;;;;;;;;;5068955;28;20304;-64
2021/09/04 06:55:05;;;;;;;18.60;16.70;;;;;;;;;;5070177;28;20243;-63
2021/09/04 06:57:30;;;;;;;18.67;15.50;;;;;;;;;;5049798;28;20228;-63
2021/09/04 06:59:56;;;;;;;19.70;17.30;;;;;;;;;;5063378;28;20856;-62
2021/09/04 07:02:21;;;;;;;18.57;16.50;;;;;;;;;;5070170;28;20303;-63
2021/09/04 07:04:46;;;;;;;18.20;15.60;;;;;;;;;;5068831;28;20224;-64
2021/09/04 07:07:11;;;;;;;16.00;14.27;;;;;;;;;;5063218;28;20259;-63
2021/09/04 07:09:37;;;;;;;19.10;14.77;;;;;;;;;;5046855;28;20225;-63
2021/09/04 07:12:02;;;;;;;17.50;15.03;;;;;;;;;;5069459;28;20225;-63
2021/09/04 07:14:27;;;;;;;18.87;15.13;;;;;;;;;;5056509;28;20267;-62
2021/09/04 07:16:53;;;;;;;17.30;14.60;;;;;;;;;;5069599;28;20232;-63
2021/09/04 07:19:18;;;;;;;18.00;15.60;;;;;;;;;;5068361;28;20303;-62
2021/09/04 07:21:44;;;;;;;17.50;14.60;;;;;;;;;;5061830;28;20547;-62
2021/09/04 07:24:09;;;;;;;19.90;15.60;;;;;;;;;;5064628;28;20316;-62
2021/09/04 07:26:34;;;;;;;18.30;15.10;;;;;;;;;;5069887;28;20543;-63
2021/09/04 07:29:00;;;;;;;19.73;14.90;;;;;;;;;;5067496;28;20231;-63
2021/09/04 07:31:25;;;;;;;19.33;15.67;;;;;;;;;;5062599;28;20243;-63
2021/09/04 07:33:50;;;;;;;19.37;16.63;;;;;;;;;;5064519;28;20720;-63
2021/09/04 07:36:15;;;;;;;16.47;12.97;;;;;;;;;;5051883;28;20217;-63
2021/09/04 07:38:41;;;;;;;18.27;14.60;;;;;;;;;;5066480;28;20251;-63
2021/09/04 07:41:06;;;;;;;17.87;15.20;;;;;;;;;;5062249;28;20315;-62
2021/09/04 07:43:31;;;;;;;18.60;15.30;;;;;;;;;;5065530;28;20548;-63
2021/09/04 07:45:57;;;;;;;17.40;14.83;;;;;;;;;;5068621;28;20308;-63
2021/09/04 07:48:22;;;;;;;17.53;14.50;;;;;;;;;;5066528;28;20281;-63
2021/09/04 07:50:47;;;;;;;18.47;14.80;;;;;;;;;;5062019;28;20267;-62
2021/09/04 07:53:12;;;;;;;16.33;14.20;;;;;;;;;;5065647;28;20224;-62
2021/09/04 07:55:38;;;;;;;15.70;14.10;;;;;;;;;;5069226;28;20299;-63
2021/09/04 07:58:03;;;;;;;16.97;14.77;;;;;;;;;;5065190;28;20220;-63
2021/09/04 08:00:28;;;;;;;17.27;14.57;;;;;;;;;;5062371;28;20248;-63
2021/09/04 08:02:53;;;;;;;16.60;13.53;;;;;;;;;;5065193;28;20221;-63
2021/09/04 08:05:21;;;;;;;15.37;13.77;;;;;;;;;;5071363;28;20216;-63
2021/09/04 08:07:46;;;;;;;19.47;14.73;;;;;;;;;;5066391;28;20225;-64
2021/09/04 08:10:12;;;;;;;17.07;13.53;;;;;;;;;;5051214;28;20474;-63
2021/09/04 08:12:37;;;;;;;18.30;15.33;;;;;;;;;;5046546;28;20225;-62
2021/09/04 08:15:05;;;;;;;17.90;14.27;;;;;;;;;;5049679;28;20221;-62
2021/09/04 08:17:30;;;;;;;16.80;14.60;;;;;;;;;;5034836;28;20221;-62
2021/09/04 08:19:56;;;;;;;16.43;13.43;;;;;;;;;;5050757;28;20487;-62
2021/09/04 08:22:21;;;;;;;19.03;15.07;;;;;;;;;;5038793;28;20312;-62
2021/09/04 08:24:46;;;;;;;15.70;13.70;;;;;;;;;;5046692;28;20221;-63
2021/09/04 08:27:12;;;;;;;19.50;14.20;;;;;;;;;;5052294;28;20233;-63
2021/09/04 08:29:37;;;;;;;16.53;13.73;;;;;;;;;;5048282;28;20267;-62
2021/09/04 08:32:03;;;;;;;19.93;13.83;;;;;;;;;;5027771;28;20617;-62
2021/09/04 08:34:28;;;;;;;16.30;13.40;;;;;;;;;;5046786;28;20220;-63
2021/09/04 08:36:53;;;;;;;15.83;13.03;;;;;;;;;;5050865;28;20217;-63
2021/09/04 08:39:18;;;;;;;15.50;13.37;;;;;;;;;;5047541;28;20303;-63
2021/09/04 08:41:44;;;;;;;18.90;13.37;;;;;;;;;;5051875;28;20664;-63
2021/09/04 08:44:10;;;;;;;16.47;13.40;;;;;;;;;;5060004;28;20361;-63
2021/09/04 08:46:37;;;;;;;16.77;12.27;;;;;;;;;;5061114;28;20224;-63
2021/09/04 08:49:04;;;;;;;13.40;11.83;;;;;;;;;;5063368;28;20649;-63
2021/09/04 08:51:29;;;;;;;16.43;12.37;;;;;;;;;;5071553;28;20780;-64
2021/09/04 08:53:55;;;;;;;15.63;12.63;;;;;;;;;;5046244;28;20684;-64
2021/09/04 08:56:20;;;;;;;15.63;11.87;;;;;;;;;;5067904;28;20656;-64
2021/09/04 08:58:45;;;;;;;18.43;12.67;;;;;;;;;;5065018;28;20245;-64
2021/09/04 09:01:19;;;;;;;13.70;12.30;;;;;;;;;;5060520;28;20239;-64
2021/09/04 09:03:45;;;;;;;17.03;12.90;;;;;;;;;;5063370;28;20221;-64
2021/09/04 09:06:11;;;;;;;15.03;12.97;;;;;;;;;;5067580;28;20767;-65
2021/09/04 09:08:41;;;;;;;15.50;13.80;;;;;;;;;;5065226;28;20216;-64
2021/09/04 09:11:08;;;;;;;20.23;12.43;;;;;;;;;;5042941;28;20465;-64
2021/09/04 09:13:45;;;;;;;16.33;13.57;;;;;;;;;;5062493;28;20503;-65
2021/09/04 09:16:17;;;;;;;16.83;12.60;;;;;;;;;;5048968;28;20561;-65
2021/09/04 09:18:58;;;;;;;18.53;14.33;;;;;;;;;;5060602;28;20549;-65
2021/09/04 09:21:30;;;;;;;14.60;12.00;;;;;;;;;;5051745;28;20446;-65
2021/09/04 09:24:25;;;;;;;16.20;12.43;;;;;;;;;;5060446;28;20459;-65
2021/09/04 09:26:55;;;;;;;15.30;12.10;;;;;;;;;;5059257;28;20472;-64
2021/09/04 09:29:26;;;;;;;18.43;12.00;;;;;;;;;;5065427;28;20460;-64
2021/09/04 09:32:04;;;;;;;25.23;12.87;;;;;;;;;;5049368;28;20963;-63
2021/09/04 09:34:29;;;;;;;13.17;11.77;;;;;;;;;;5064677;28;20521;-64
2021/09/04 09:36:57;;;;;;;21.07;14.60;;;;;;;;;;5056527;28;20473;-64
2021/09/04 09:39:27;;;;;;;18.03;13.63;;;;;;;;;;5063250;28;20221;-63
2021/09/04 09:41:53;;;;;;;15.47;13.23;;;;;;;;;;5066761;28;20516;-64
2021/09/04 09:44:26;;;;;;;17.53;14.43;;;;;;;;;;5054668;28;20780;-65
2021/09/04 09:46:54;;;;;;;20.43;13.57;;;;;;;;;;5066789;28;20526;-64
2021/09/04 09:49:31;;;;;;;16.87;13.50;;;;;;;;;;5047414;28;20462;-65
2021/09/04 09:52:03;;;;;;;20.17;13.67;;;;;;;;;;5059819;28;20455;-64
2021/09/04 09:54:31;;;;;;;17.57;14.50;;;;;;;;;;5060459;28;20463;-64
2021/09/04 09:56:58;;;;;;;16.73;13.30;;;;;;;;;;5046973;28;20458;-64
2021/09/04 09:59:26;;;;;;;18.90;14.80;;;;;;;;;;5060200;28;20475;-64
2021/09/04 10:01:52;;;;;;;15.87;13.00;;;;;;;;;;5060710;28;20460;-64
2021/09/04 10:04:17;;;;;;;18.33;12.87;;;;;;;;;;5066633;28;20462;-64
2021/09/04 10:06:43;;;;;;;18.10;13.20;;;;;;;;;;5042343;28;20954;-65
2021/09/04 10:09:08;;;;;;;20.57;14.20;;;;;;;;;;5060778;28;20235;-64
2021/09/04 10:11:36;;;;;;;14.07;12.27;;;;;;;;;;5030080;28;20221;-63
2021/09/04 10:14:01;;;;;;;12.87;11.10;;;;;;;;;;5043109;28;20222;-63
2021/09/04 10:16:26;;;;;;;16.20;13.73;;;;;;;;;;5045050;28;20477;-64
2021/09/04 10:18:52;;;;;;;17.60;14.30;;;;;;;;;;5063223;28;20641;-64
2021/09/04 10:21:17;;;;;;;16.23;12.80;;;;;;;;;;5063521;28;20228;-64
2021/09/04 10:23:50;;;;;;;17.20;13.40;;;;;;;;;;5059321;28;20212;-63
2021/09/04 10:26:32;;;;;;;18.53;13.60;;;;;;;;;;5072686;28;20319;-64
2021/09/04 10:29:08;;;;;;;16.50;13.23;;;;;;;;;;5059541;28;20547;-64
2021/09/04 10:31:56;;;;;;;19.70;15.17;;;;;;;;;;5059690;28;20460;-64
2021/09/04 10:34:26;;;;;;;21.57;14.27;;;;;;;;;;5063228;28;20467;-65
2021/09/04 10:36:58;;;;;;;21.63;13.63;;;;;;;;;;5033042;28;20483;-64
2021/09/04 10:39:24;;;;;;;18.77;14.73;;;;;;;;;;5065211;28;20536;-64
2021/09/04 10:41:50;;;;;;;17.80;14.13;;;;;;;;;;5059380;28;20463;-64
2021/09/04 10:44:15;;;;;;;21.93;16.97;;;;;;;;;;5044144;28;20221;-64
2021/09/04 10:46:42;;;;;;;15.43;13.80;;;;;;;;;;5048474;28;20463;-63
2021/09/04 10:49:07;;;;;;;19.00;14.73;;;;;;;;;;5047088;28;20224;-64
2021/09/04 10:51:50;;;;;;;15.70;13.63;;;;;;;;;;5059122;28;20477;-65
2021/09/04 10:54:56;;;;;;;19.67;14.27;;;;;;;;;;5051899;28;20229;-64
2021/09/04 10:57:22;;;;;;;17.87;13.87;;;;;;;;;;5050157;28;20475;-64
2021/09/04 11:00:03;;;;;;;19.77;15.57;;;;;;;;;;5056815;28;20470;-64
2021/09/04 11:02:42;;;;;;;17.70;14.77;;;;;;;;;;5062863;28;20239;-64
2021/09/04 11:05:42;;;;;;;19.80;13.73;;;;;;;;;;5050416;28;20474;-64
2021/09/04 11:08:10;;;;;;;18.20;14.67;;;;;;;;;;5048953;28;20801;-64
2021/09/04 11:11:18;;;;;;;15.70;14.00;;;;;;;;;;5051565;28;20478;-66
2021/09/04 11:13:48;;;;;;;16.37;14.37;;;;;;;;;;5061257;28;20447;-66
2021/09/04 11:16:33;;;;;;;21.87;13.67;;;;;;;;;;5050649;28;20469;-67
2021/09/04 11:19:10;;;;;;;19.40;13.40;;;;;;;;;;5060558;28;20796;-67
2021/09/04 11:22:03;;;;;;;19.13;14.00;;;;;;;;;;5070387;28;20458;-67
2021/09/04 11:24:33;;;;;;;18.97;14.13;;;;;;;;;;5052681;28;20834;-66
2021/09/04 11:27:01;;;;;;;20.73;15.50;;;;;;;;;;5072776;28;20788;-66
2021/09/04 11:29:26;;;;;;;18.37;16.17;;;;;;;;;;5065985;28;20462;-68
2021/09/04 11:31:58;;;;;;;21.70;14.83;;;;;;;;;;5061709;28;20464;-66
2021/09/04 11:34:37;;;;;;;18.57;14.80;;;;;;;;;;5065969;28;20463;-65
2021/09/04 11:37:13;;;;;;;20.33;15.60;;;;;;;;;;5069088;28;20455;-66
2021/09/04 11:39:38;;;;;;;23.03;15.03;;;;;;;;;;5068806;28;20836;-67
2021/09/04 11:42:03;;;;;;;18.47;14.30;;;;;;;;;;5062495;28;20608;-66
2021/09/04 11:44:29;;;;;;;18.57;13.73;;;;;;;;;;5045411;28;20218;-66
2021/09/04 11:46:54;;;;;;;22.00;16.80;;;;;;;;;;5068957;28;20308;-66
2021/09/04 11:49:19;;;;;;;23.07;16.37;;;;;;;;;;5068899;28;20216;-66
2021/09/04 11:51:55;;;;;;;17.13;14.90;;;;;;;;;;5061858;28;20307;-66
2021/09/04 11:54:26;;;;;;;19.27;14.60;;;;;;;;;;5062160;28;20227;-65
2021/09/04 11:56:52;;;;;;;19.40;14.60;;;;;;;;;;5067536;28;20979;-66
2021/09/04 11:59:17;;;;;;;17.40;13.63;;;;;;;;;;5069330;28;20515;-65
2021/09/04 12:01:42;;;;;;;18.13;14.90;;;;;;;;;;5028814;28;20723;-64
2021/09/04 12:04:11;;;;;;;17.33;13.83;;;;;;;;;;5044727;28;20232;-64
2021/09/04 12:06:36;;;;;;;17.63;12.93;;;;;;;;;;5050024;28;20687;-65
2021/09/04 12:09:02;;;;;;;16.30;13.10;;;;;;;;;;5068446;28;20455;-63
2021/09/04 12:11:27;;;;;;;21.33;16.37;;;;;;;;;;5062944;28;20290;-64
2021/09/04 12:13:53;;;;;;;17.63;15.50;;;;;;;;;;5058448;28;20233;-65
2021/09/04 12:16:18;;;;;;;16.30;13.30;;;;;;;;;;5035649;28;20216;-64
2021/09/04 12:18:45;;;;;;;18.10;14.40;;;;;;;;;;5044033;28;20213;-64
2021/09/04 12:21:25;;;;;;;16.33;13.23;;;;;;;;;;5071404;28;20671;-63
2021/09/04 12:23:55;;;;;;;18.73;13.27;;;;;;;;;;5061454;28;20807;-64
2021/09/04 12:26:20;;;;;;;16.17;12.90;;;;;;;;;;5063930;28;20460;-64
2021/09/04 12:28:46;;;;;;;18.13;13.70;;;;;;;;;;5068065;28;20521;-64
2021/09/04 12:31:16;;;;;;;16.83;12.53;;;;;;;;;;5066159;28;20632;-64
2021/09/04 12:33:50;;;;;;;16.03;13.80;;;;;;;;;;5061047;28;20660;-65
2021/09/04 12:36:16;;;;;;;19.00;14.57;;;;;;;;;;5062460;28;20467;-64
2021/09/04 12:38:44;;;;;;;20.30;13.87;;;;;;;;;;5050622;28;20463;-64
2021/09/04 12:41:14;;;;;;;19.60;13.43;;;;;;;;;;5067011;28;20469;-64
2021/09/04 12:43:54;;;;;;;18.07;14.03;;;;;;;;;;5043851;28;20454;-63
2021/09/04 12:46:37;;;;;;;16.30;13.60;;;;;;;;;;5061125;28;20576;-66
2021/09/04 12:49:23;;;;;;;18.07;13.37;;;;;;;;;;5064166;28;20464;-64
2021/09/04 12:52:08;;;;;;;17.60;13.90;;;;;;;;;;5068017;28;20455;-65
2021/09/04 12:54:52;;;;;;;15.97;13.60;;;;;;;;;;5067846;28;20777;-64
2021/09/04 12:57:17;;;;;;;21.77;13.67;;;;;;;;;;5065211;28;20542;-65
2021/09/04 12:59:54;;;;;;;17.40;14.27;;;;;;;;;;5060795;28;20550;-64
2021/09/04 13:02:26;;;;;;;16.23;13.20;;;;;;;;;;5061348;28;20229;-64
2021/09/04 13:04:58;;;;;;;19.23;14.57;;;;;;;;;;5047637;28;20486;-64
2021/09/04 13:07:24;;;;;;;35.57;31.00;;;;;;;;;;5060463;28;20471;-64
2021/09/04 13:09:49;;;;;;;20.10;15.80;;;;;;;;;;5066957;28;20983;-64
2021/09/04 13:12:15;;;;;;;26.43;20.77;;;;;;;;;;5067503;28;20314;-64
2021/09/04 13:14:41;;;;;;;24.03;19.37;;;;;;;;;;5053775;28;20212;-64
2021/09/04 13:17:07;;;;;;;20.27;17.23;;;;;;;;;;5067495;28;20528;-63
2021/09/04 13:19:33;;;;;;;36.47;29.60;;;;;;;;;;5044910;28;20216;-63
2021/09/04 13:21:58;;;;;;;25.57;20.10;;;;;;;;;;5068054;28;20465;-63
2021/09/04 13:24:24;;;;;;;30.43;25.30;;;;;;;;;;5062240;28;20221;-64
2021/09/04 13:26:49;;;;;;;22.73;19.67;;;;;;;;;;5072254;28;20228;-64
2021/09/04 13:29:14;;;;;;;28.47;24.03;;;;;;;;;;5061306;28;20278;-63
2021/09/04 13:31:43;;;;;;;30.83;27.57;;;;;;;;;;5059828;28;20296;-63
2021/09/04 13:34:10;;;;;;;29.27;22.73;;;;;;;;;;5055940;28;20324;-64
2021/09/04 13:36:36;;;;;;;26.57;22.90;;;;;;;;;;5054113;28;20478;-64
2021/09/04 13:39:01;;;;;;;18.60;15.47;;;;;;;;;;5067381;28;20555;-65
2021/09/04 13:41:27;;;;;;;13.17;11.73;;;;;;;;;;5065702;28;20568;-63
2021/09/04 13:43:52;;;;;;;13.63;11.60;;;;;;;;;;5060237;28;20543;-65
2021/09/04 13:46:17;;;;;;;18.13;14.83;;;;;;;;;;5060873;28;20316;-64
2021/09/04 13:48:43;;;;;;;16.97;15.27;;;;;;;;;;5066576;28;20303;-63
2021/09/04 13:51:08;;;;;;;19.63;17.37;;;;;;;;;;5066475;28;20224;-64
2021/09/04 13:53:33;;;;;;;21.67;17.97;;;;;;;;;;5059881;28;20304;-64
2021/09/04 13:55:58;;;;;;;18.73;16.73;;;;;;;;;;5060930;28;20225;-63
2021/09/04 13:58:24;;;;;;;18.47;16.37;;;;;;;;;;5066812;28;20613;-63
2021/09/04 14:00:49;;;;;;;19.43;15.67;;;;;;;;;;5053395;28;20225;-64
2021/09/04 14:03:14;;;;;;;16.97;15.17;;;;;;;;;;5051748;28;20304;-64
2021/09/04 14:05:39;;;;;;;17.83;15.93;;;;;;;;;;5051158;28;20548;-64
2021/09/04 14:08:05;;;;;;;19.13;16.33;;;;;;;;;;5051605;28;20355;-64
2021/09/04 14:10:30;;;;;;;20.40;16.40;;;;;;;;;;5051052;28;20841;-64
2021/09/04 14:12:55;;;;;;;18.30;15.40;;;;;;;;;;5051606;28;20220;-63
2021/09/04 14:15:20;;;;;;;22.03;16.20;;;;;;;;;;5053560;28;20300;-64
2021/09/04 14:17:46;;;;;;;23.23;20.17;;;;;;;;;;5053291;28;20261;-63